createdAt,value
2019-04-14T00:01:28.375Z,51.57
2019-04-14T00:04:29.279Z,51.93
2019-04-14T00:07:16.940Z,53.13
2019-04-14T00:10:07.153Z,55.77
2019-04-14T00:12:55.635Z,52.17
2019-04-14T00:15:47.094Z,49.00
2019-04-14T00:18:33.712Z,56.57
2019-04-14T00:21:21.803Z,54.97
2019-04-14T00:24:09.517Z,57.70
2019-04-14T00:26:57.501Z,63.20
2019-04-14T00:29:45.763Z,64.07
2019-04-14T00:32:35.453Z,65.37
2019-04-14T00:35:29.997Z,54.30
2019-04-14T00:38:26.741Z,56.00
2019-04-14T00:41:34.341Z,53.70
2019-04-14T00:44:34.008Z,62.10
2019-04-14T00:47:24.882Z,59.63
2019-04-14T00:50:12.686Z,61.60
2019-04-14T00:53:01.213Z,68.83
2019-04-14T00:55:49.011Z,67.63
2019-04-14T00:58:36.856Z,65.10
2019-04-14T01:01:24.455Z,69.73
2019-04-14T01:04:12.251Z,67.37
2019-04-14T01:07:00.111Z,68.53
2019-04-14T01:09:48.774Z,74.07
2019-04-14T01:12:36.642Z,69.73
2019-04-14T01:15:24.817Z,71.00
2019-04-14T01:18:12.631Z,65.67
2019-04-14T01:21:00.464Z,70.93
2019-04-14T01:23:48.079Z,72.53
2019-04-14T01:26:35.661Z,70.57
2019-04-14T01:29:23.369Z,66.83
2019-04-14T01:32:11.238Z,70.40
2019-04-14T01:34:59.341Z,66.17
2019-04-14T01:37:47.109Z,67.77
2019-04-14T01:40:35.862Z,68.77
2019-04-14T01:43:23.561Z,76.23
2019-04-14T01:46:17.815Z,71.97
2019-04-14T01:49:00.689Z,70.23
2019-04-14T01:52:08.175Z,71.13
2019-04-14T01:55:16.258Z,72.37
2019-04-14T01:58:16.416Z,77.73
2019-04-14T02:01:23.861Z,73.07
2019-04-14T02:04:11.735Z,75.37
2019-04-14T02:06:59.510Z,68.00
2019-04-14T02:09:47.086Z,74.80
2019-04-14T02:12:35.090Z,75.37
2019-04-14T02:15:22.341Z,72.10
2019-04-14T02:18:10.101Z,77.57
2019-04-14T02:20:57.956Z,73.47
2019-04-14T02:23:45.471Z,73.03
2019-04-14T02:26:33.168Z,73.47
2019-04-14T02:29:21.187Z,73.80
2019-04-14T02:32:41.882Z,72.07
2019-04-14T02:35:32.220Z,77.77
2019-04-14T02:38:23.356Z,70.33
2019-04-14T02:46:47.733Z,66.83
2019-04-14T02:49:34.932Z,67.87
2019-04-14T02:52:25.851Z,68.93
2019-04-14T02:57:52.517Z,66.90
2019-04-14T03:00:49.059Z,66.47
2019-04-14T03:03:41.343Z,69.93
2019-04-14T03:06:25.738Z,70.40
2019-04-14T03:09:38.121Z,67.37
2019-04-14T03:14:54.092Z,69.27
2019-04-14T03:18:00.575Z,70.77
2019-04-14T03:21:19.576Z,75.13
2019-04-14T03:24:31.636Z,68.87
2019-04-14T03:27:45.922Z,65.83
2019-04-14T03:30:48.722Z,67.97
2019-04-14T03:33:31.892Z,65.87
2019-04-14T03:41:41.329Z,65.30
2019-04-14T03:44:37.753Z,63.27
2019-04-14T03:47:19.679Z,70.50
2019-04-14T03:50:09.648Z,66.83
2019-04-14T03:56:02.415Z,63.83
2019-04-14T03:58:47.134Z,60.37
2019-04-14T04:01:36.652Z,61.50
2019-04-14T04:04:25.437Z,64.10
2019-04-14T04:07:12.599Z,64.40
2019-04-14T04:10:09.379Z,70.37
2019-04-14T04:12:57.645Z,65.10
2019-04-14T04:15:45.472Z,64.93
2019-04-14T04:18:44.779Z,64.50
2019-04-14T04:21:34.069Z,63.77
2019-04-14T04:24:39.642Z,66.27
2019-04-14T04:27:31.565Z,67.93
2019-04-14T04:30:27.703Z,61.03
2019-04-14T04:33:24.206Z,57.57
2019-04-14T04:36:22.711Z,61.13
2019-04-14T04:39:22.205Z,63.73
2019-04-14T04:42:09.316Z,63.03
2019-04-14T04:44:57.496Z,63.43
2019-04-14T04:47:45.400Z,64.20
2019-04-14T04:50:34.541Z,62.23
2019-04-14T04:53:22.333Z,63.53
2019-04-14T04:56:10.164Z,64.50
2019-04-14T04:58:57.543Z,61.87
2019-04-14T05:01:45.321Z,57.20
2019-04-14T05:04:33.171Z,62.70
2019-04-14T05:07:20.960Z,60.87
2019-04-14T05:10:33.300Z,61.73
2019-04-14T05:13:25.383Z,64.87
2019-04-14T05:16:13.099Z,66.00
2019-04-14T05:19:13.993Z,67.27
2019-04-14T05:21:51.749Z,65.77
2019-04-14T05:24:39.757Z,72.33
2019-04-14T05:27:27.643Z,71.97
2019-04-14T05:30:15.425Z,73.27
2019-04-14T05:33:03.344Z,75.07
2019-04-14T05:35:51.036Z,70.77
2019-04-14T05:38:38.895Z,67.13
2019-04-14T05:41:26.536Z,68.07
2019-04-14T05:44:14.387Z,65.17
2019-04-14T05:47:02.193Z,66.57
2019-04-14T05:49:52.936Z,61.10
2019-04-14T05:52:40.353Z,64.27
2019-04-14T05:55:28.713Z,68.27
2019-04-14T05:58:16.443Z,69.53
2019-04-14T06:01:04.731Z,67.00
2019-04-14T06:03:52.190Z,65.70
2019-04-14T06:06:40.124Z,63.20
2019-04-14T06:09:27.740Z,66.03
2019-04-14T06:12:15.574Z,62.87
2019-04-14T06:15:02.788Z,63.00
2019-04-14T06:17:50.058Z,60.50
2019-04-14T06:20:37.688Z,63.97
2019-04-14T06:23:25.729Z,62.87
2019-04-14T06:26:13.658Z,59.97
2019-04-14T06:29:01.496Z,61.73
2019-04-14T06:32:04.656Z,64.63
2019-04-14T06:35:09.809Z,63.67
2019-04-14T06:38:02.768Z,60.20
2019-04-14T06:41:08.103Z,56.80
2019-04-14T06:43:55.546Z,53.00
2019-04-14T06:46:43.222Z,56.23
2019-04-14T06:49:30.495Z,55.90
2019-04-14T06:52:17.826Z,49.97
2019-04-14T06:55:05.764Z,45.87
2019-04-14T06:57:53.610Z,52.20
2019-04-14T07:00:41.006Z,50.93
2019-04-14T07:03:28.857Z,52.10
2019-04-14T07:06:16.379Z,51.23
2019-04-14T07:09:06.050Z,45.97
2019-04-14T07:11:53.717Z,45.37
2019-04-14T07:14:41.408Z,46.20
2019-04-14T07:17:29.008Z,44.63
2019-04-14T07:20:18.980Z,48.60
2019-04-14T07:23:06.461Z,44.90
2019-04-14T07:25:53.904Z,43.37
2019-04-14T07:28:42.229Z,44.10
2019-04-14T07:31:48.928Z,43.53
2019-04-14T07:34:54.558Z,39.97
2019-04-14T07:37:57.528Z,36.67
2019-04-14T07:40:51.944Z,35.77
2019-04-14T07:43:57.141Z,34.77
2019-04-14T07:47:19.435Z,30.37
2019-04-14T07:50:31.656Z,30.60
2019-04-14T07:53:44.384Z,31.23
2019-04-14T07:56:57.090Z,29.47
2019-04-14T07:59:54.421Z,26.20
2019-04-14T08:03:01.146Z,26.67
2019-04-14T08:05:48.548Z,26.20
2019-04-14T08:08:36.062Z,27.70
2019-04-14T08:11:23.719Z,27.17
2019-04-14T08:14:11.690Z,25.87
2019-04-14T08:16:59.627Z,24.90
2019-04-14T08:19:47.699Z,27.83
2019-04-14T08:22:35.429Z,30.80
2019-04-14T08:25:23.082Z,26.23
2019-04-14T08:28:10.586Z,24.33
2019-04-14T08:30:57.890Z,26.93
2019-04-14T08:33:45.805Z,27.40
2019-04-14T08:36:33.452Z,27.73
2019-04-14T08:39:21.001Z,26.90
2019-04-14T08:42:17.104Z,25.90
2019-04-14T08:45:13.409Z,28.03
2019-04-14T08:48:22.967Z,26.03
2019-04-14T08:51:36.061Z,25.93
2019-04-14T08:54:45.658Z,24.67
2019-04-14T08:57:58.625Z,25.50
2019-04-14T09:00:53.208Z,23.83
2019-04-14T09:03:55.750Z,24.93
2019-04-14T09:06:50.815Z,23.60
2019-04-14T09:09:47.347Z,23.90
2019-04-14T09:12:37.288Z,23.37
2019-04-14T09:15:24.916Z,23.40
2019-04-14T09:18:12.537Z,21.47
2019-04-14T09:20:59.871Z,20.63
2019-04-14T09:23:48.011Z,24.60
2019-04-14T09:26:35.605Z,24.50
2019-04-14T09:29:23.152Z,23.03
2019-04-14T09:32:12.340Z,20.67
2019-04-14T09:35:00.486Z,22.23
2019-04-14T09:37:48.116Z,21.37
2019-04-14T09:40:35.825Z,19.13
2019-04-14T09:43:23.419Z,19.60
2019-04-14T09:46:11.004Z,19.13
2019-04-14T09:48:58.483Z,20.27
2019-04-14T09:51:45.741Z,20.97
2019-04-14T09:54:33.087Z,18.13
2019-04-14T09:57:20.580Z,22.27
2019-04-14T10:00:08.419Z,19.93
2019-04-14T10:02:56.096Z,20.80
2019-04-14T10:05:43.932Z,19.70
2019-04-14T10:08:32.004Z,20.13
2019-04-14T10:11:19.683Z,20.40
2019-04-14T10:14:07.214Z,17.87
2019-04-14T10:16:55.186Z,20.43
2019-04-14T10:19:42.577Z,17.30
2019-04-14T10:22:34.088Z,21.20
2019-04-14T10:25:19.298Z,20.23
2019-04-14T10:28:06.787Z,19.17
2019-04-14T10:30:54.091Z,17.07
2019-04-14T10:33:41.336Z,19.30
2019-04-14T10:36:28.958Z,16.93
2019-04-14T10:39:16.381Z,18.57
2019-04-14T10:42:29.201Z,17.43
2019-04-14T10:45:18.496Z,18.97
2019-04-14T10:48:06.477Z,17.27
2019-04-14T10:50:54.172Z,18.33
2019-04-14T10:53:42.058Z,18.27
2019-04-14T10:56:29.402Z,19.80
2019-04-14T10:59:17.051Z,21.27
2019-04-14T11:02:04.532Z,17.87
2019-04-14T11:04:52.512Z,19.13
2019-04-14T11:07:39.799Z,20.53
2019-04-14T11:10:27.419Z,21.20
2019-04-14T11:13:14.925Z,21.20
2019-04-14T11:16:02.863Z,21.40
2019-04-14T11:18:50.165Z,21.63
2019-04-14T11:21:42.873Z,22.50
2019-04-14T11:24:27.384Z,19.63
2019-04-14T11:27:14.744Z,17.30
2019-04-14T11:30:02.265Z,19.27
2019-04-14T11:33:12.271Z,18.70
2019-04-14T11:36:06.599Z,16.17
2019-04-14T11:39:07.290Z,17.67
2019-04-14T11:41:55.094Z,17.47
2019-04-14T11:44:42.784Z,16.07
2019-04-14T11:47:30.263Z,18.77
2019-04-14T11:50:18.034Z,17.67
2019-04-14T11:53:05.956Z,19.20
2019-04-14T11:55:53.662Z,20.53
2019-04-14T11:58:41.150Z,20.50
2019-04-14T12:01:46.783Z,21.27
2019-04-14T12:04:56.737Z,20.93
2019-04-14T12:07:51.008Z,20.97
2019-04-14T12:10:38.744Z,23.20
2019-04-14T12:13:26.200Z,21.53
2019-04-14T12:16:13.948Z,21.50
2019-04-14T12:19:01.770Z,23.80
2019-04-14T12:21:49.991Z,25.30
2019-04-14T12:24:37.236Z,26.10
2019-04-14T12:27:24.788Z,21.83
2019-04-14T12:30:13.677Z,22.67
2019-04-14T12:33:01.710Z,23.20
2019-04-14T12:35:50.023Z,25.33
2019-04-14T12:38:37.626Z,23.33
2019-04-14T12:41:31.529Z,22.27
2019-04-14T12:44:41.304Z,22.40
2019-04-14T12:47:44.168Z,22.37
2019-04-14T12:50:35.279Z,19.23
2019-04-14T12:53:23.239Z,20.87
2019-04-14T12:56:11.633Z,21.40
2019-04-14T12:59:18.744Z,20.93
2019-04-14T13:02:18.996Z,21.87
2019-04-14T13:05:07.081Z,23.13
2019-04-14T13:07:54.914Z,23.10
2019-04-14T13:10:43.131Z,21.17
2019-04-14T13:13:31.243Z,19.93
2019-04-14T13:16:18.626Z,20.63
2019-04-14T13:19:06.631Z,22.37
2019-04-14T13:21:54.571Z,20.53
2019-04-14T13:24:42.446Z,23.57
2019-04-14T13:27:29.785Z,23.93
2019-04-14T13:30:18.856Z,21.03
2019-04-14T13:33:06.614Z,21.87
2019-04-14T13:35:54.481Z,21.70
2019-04-14T13:38:42.236Z,23.37
2019-04-14T13:41:30.098Z,22.67
2019-04-14T13:44:18.114Z,25.13
2019-04-14T13:47:05.981Z,25.53
2019-04-14T13:49:54.108Z,27.67
2019-04-14T13:52:47.143Z,26.37
2019-04-14T13:55:31.438Z,30.53
2019-04-14T13:58:18.953Z,28.10
2019-04-14T14:01:06.518Z,29.27
2019-04-14T14:03:54.084Z,29.50
2019-04-14T14:06:41.918Z,29.77
2019-04-14T14:09:29.217Z,28.90
2019-04-14T14:12:23.769Z,30.77
2019-04-14T14:15:38.992Z,31.20
2019-04-14T14:18:51.441Z,31.80
2019-04-14T14:21:45.893Z,29.97
2019-04-14T14:24:42.596Z,29.00
2019-04-14T14:27:30.139Z,30.57
2019-04-14T14:30:19.581Z,30.60
2019-04-14T14:33:07.472Z,31.03
2019-04-14T14:35:55.071Z,33.13
2019-04-14T14:38:42.592Z,31.47
2019-04-14T14:41:30.327Z,30.93
2019-04-14T14:44:18.155Z,32.10
2019-04-14T14:47:27.222Z,29.50
2019-04-14T14:50:24.747Z,32.23
2019-04-14T14:53:12.721Z,32.23
2019-04-14T14:56:00.510Z,32.37
2019-04-14T14:58:48.574Z,31.93
2019-04-14T15:01:36.160Z,33.90
2019-04-14T15:04:24.308Z,32.13
2019-04-14T15:07:12.072Z,30.73
2019-04-14T15:09:59.953Z,29.73
2019-04-14T15:12:47.982Z,30.43
2019-04-14T15:15:35.831Z,30.17
2019-04-14T15:18:23.325Z,34.20
2019-04-14T15:21:11.075Z,31.70
2019-04-14T15:23:58.372Z,28.50
2019-04-14T15:26:45.967Z,28.47
2019-04-14T15:29:33.540Z,27.83
2019-04-14T15:32:21.333Z,27.57
2019-04-14T15:35:09.638Z,27.93
2019-04-14T15:37:58.250Z,29.07
2019-04-14T15:40:46.170Z,25.67
2019-04-14T15:43:33.396Z,27.60
2019-04-14T15:46:20.995Z,31.13
2019-04-14T15:49:08.882Z,32.83
2019-04-14T15:51:56.217Z,30.53
2019-04-14T15:54:43.886Z,33.97
2019-04-14T15:57:53.617Z,29.83
2019-04-14T16:01:02.670Z,30.37
2019-04-14T16:03:57.991Z,35.27
2019-04-14T16:07:03.339Z,34.20
2019-04-14T16:09:59.289Z,34.23
2019-04-14T16:13:14.922Z,34.13
2019-04-14T16:16:09.190Z,34.17
2019-04-14T16:19:10.104Z,30.93
2019-04-14T16:21:57.648Z,34.60
2019-04-14T16:24:44.917Z,30.10
2019-04-14T16:27:50.650Z,28.63
2019-04-14T16:31:12.940Z,33.70
2019-04-14T16:34:02.688Z,33.77
2019-04-14T16:36:50.883Z,32.00
2019-04-14T16:39:38.341Z,30.20
2019-04-14T16:42:25.739Z,32.33
2019-04-14T16:45:14.080Z,33.07
2019-04-14T16:48:01.735Z,33.43
2019-04-14T16:50:49.862Z,32.63
2019-04-14T16:53:40.095Z,32.33
2019-04-14T16:56:47.714Z,33.40
2019-04-14T16:59:35.302Z,34.13
2019-04-14T17:02:23.011Z,37.80
2019-04-14T17:05:10.916Z,35.00
2019-04-14T17:07:58.407Z,34.60
2019-04-14T17:10:46.440Z,32.63
2019-04-14T17:13:37.251Z,33.40
2019-04-14T17:16:38.641Z,31.73
2019-04-14T17:19:48.450Z,36.57
2019-04-14T17:22:47.875Z,40.20
2019-04-14T17:25:40.534Z,41.30
2019-04-14T17:28:46.975Z,33.47
2019-04-14T17:31:49.382Z,36.63
2019-04-14T17:35:00.226Z,38.90
2019-04-14T17:38:12.896Z,41.43
2019-04-14T17:41:19.449Z,37.57
2019-04-14T17:44:14.282Z,35.70
2019-04-14T17:47:18.427Z,37.00
2019-04-14T17:50:40.168Z,38.87
2019-04-14T17:53:21.560Z,36.57
2019-04-14T17:56:19.941Z,39.53
2019-04-14T17:59:30.551Z,36.00
2019-04-14T18:02:38.379Z,40.40
2019-04-14T18:05:36.823Z,42.43
2019-04-14T18:08:55.393Z,39.40
2019-04-14T18:12:10.998Z,36.97
2019-04-14T18:15:11.535Z,38.40
2019-04-14T18:18:15.445Z,38.63
2019-04-14T18:21:06.083Z,40.17
2019-04-14T18:23:54.309Z,41.63
2019-04-14T18:26:41.439Z,41.90
2019-04-14T18:29:39.855Z,41.63
2019-04-14T18:32:49.136Z,42.57
2019-04-14T18:35:55.322Z,45.53
2019-04-14T18:38:51.246Z,43.53
2019-04-14T18:41:49.178Z,44.97
2019-04-14T18:45:04.473Z,40.17
2019-04-14T18:47:56.267Z,43.87
2019-04-14T18:51:02.880Z,42.97
2019-04-14T18:54:07.072Z,48.13
2019-04-14T18:57:07.217Z,43.13
2019-04-14T19:00:00.469Z,42.17
2019-04-14T19:02:48.031Z,46.13
2019-04-14T19:05:35.668Z,44.73
2019-04-14T19:08:23.088Z,45.43
2019-04-14T19:11:28.622Z,46.83
2019-04-14T19:14:20.158Z,44.00
2019-04-14T19:17:23.999Z,48.53
2019-04-14T19:20:13.165Z,41.73
2019-04-14T19:23:00.864Z,49.90
2019-04-14T19:25:48.749Z,47.80
2019-04-14T19:28:36.054Z,51.60
2019-04-14T19:31:24.078Z,47.17
2019-04-14T19:34:11.996Z,47.63
2019-04-14T19:36:59.543Z,51.13
2019-04-14T19:39:47.283Z,50.73
2019-04-14T19:42:35.293Z,47.73
2019-04-14T19:45:49.438Z,48.90
2019-04-14T19:48:34.426Z,46.80
2019-04-14T19:51:22.260Z,50.57
2019-04-14T19:54:09.959Z,45.83
2019-04-14T19:56:57.774Z,47.83
2019-04-14T19:59:45.373Z,46.17
2019-04-14T20:02:33.532Z,47.33
2019-04-14T20:05:21.007Z,46.03
2019-04-14T20:08:08.968Z,48.80
2019-04-14T20:10:56.524Z,49.10
2019-04-14T20:13:46.404Z,47.23
2019-04-14T20:17:06.028Z,46.90
2019-04-14T20:20:02.214Z,48.70
2019-04-14T20:23:11.302Z,47.07
2019-04-14T20:26:22.883Z,52.00
2019-04-14T20:29:16.989Z,46.00
2019-04-14T20:32:15.324Z,45.93
2019-04-14T20:35:03.143Z,47.37
2019-04-14T20:37:50.657Z,47.23
2019-04-14T20:40:37.817Z,48.23
2019-04-14T20:43:25.748Z,49.47
2019-04-14T20:46:13.624Z,48.33
2019-04-14T20:49:01.452Z,45.20
2019-04-14T20:51:49.109Z,46.37
2019-04-14T20:54:36.774Z,44.67
2019-04-14T20:57:24.259Z,49.30
2019-04-14T21:00:12.400Z,48.80
2019-04-14T21:03:18.116Z,53.07
2019-04-14T21:06:14.177Z,51.70
2019-04-14T21:09:26.636Z,52.53
2019-04-14T21:12:32.622Z,52.73
2019-04-14T21:15:33.363Z,57.50
2019-04-14T21:18:30.621Z,60.53
2019-04-14T21:21:28.334Z,55.73
2019-04-14T21:24:22.445Z,57.30
2019-04-14T21:27:16.444Z,65.53
2019-04-14T21:30:26.556Z,63.17
2019-04-14T21:33:32.219Z,64.10
2019-04-14T21:36:42.558Z,71.23
2019-04-14T21:39:55.807Z,73.77
2019-04-14T21:42:43.426Z,56.77
2019-04-14T21:45:30.975Z,56.63
2019-04-14T21:48:18.853Z,51.57
2019-04-14T21:51:06.044Z,50.20
2019-04-14T21:53:53.568Z,49.77
2019-04-14T21:56:41.020Z,49.47
2019-04-14T21:59:31.514Z,63.10
2019-04-14T22:02:37.143Z,58.97
2019-04-14T22:05:35.122Z,65.60
2019-04-14T22:08:26.351Z,71.37
2019-04-14T22:11:17.798Z,74.07
2019-04-14T22:14:05.833Z,73.27
2019-04-14T22:16:52.945Z,71.77
2019-04-14T22:19:41.314Z,74.80
2019-04-14T22:22:29.166Z,75.23
2019-04-14T22:25:16.624Z,69.20
2019-04-14T22:28:04.302Z,70.83
2019-04-14T22:30:52.008Z,68.83
2019-04-14T22:33:39.806Z,67.07
2019-04-14T22:36:27.722Z,65.20
2019-04-14T22:39:16.380Z,70.90
2019-04-14T22:42:03.900Z,66.57
2019-04-14T22:44:52.249Z,67.93
2019-04-14T22:47:40.312Z,63.83
2019-04-14T22:50:28.493Z,64.43
2019-04-14T22:53:16.331Z,62.17
2019-04-14T22:56:04.280Z,62.73
2019-04-14T22:58:51.932Z,64.47
2019-04-14T23:01:42.497Z,64.80
2019-04-14T23:04:54.560Z,61.77
2019-04-14T23:08:22.070Z,67.13
2019-04-14T23:11:38.477Z,62.50
2019-04-14T23:14:53.637Z,63.83
2019-04-14T23:18:12.039Z,57.40
2019-04-14T23:21:27.863Z,65.03
2019-04-14T23:24:28.012Z,56.53
2019-04-14T23:27:15.321Z,54.20
2019-04-14T23:30:03.016Z,55.10
2019-04-14T23:32:50.809Z,54.13
2019-04-14T23:35:38.645Z,52.30
2019-04-14T23:38:26.374Z,52.13
2019-04-14T23:41:13.577Z,50.03
2019-04-14T23:44:02.158Z,48.13
2019-04-14T23:46:49.956Z,53.67
2019-04-14T23:49:37.491Z,50.40
2019-04-14T23:52:25.103Z,49.07
2019-04-14T23:55:13.082Z,49.67
2019-04-14T23:58:00.586Z,51.43
